Data for 05/04/2018

Time Sea-Level Adjusted Pressure Absolute Pressure Temperature Relative Humidity Dew Point   
(mb) (inHg) (mb) (inHg) (C) (F) (%) (C) (F)
00:05 1023 30.21 852 25.16 9.2 48.6 49 -1 30.3
00:10 1023 30.21 852 25.16 9.1 48.4 49 -0.9 30.4
00:15 1023 30.21 852 25.16 9.2 48.6 49 -0.8 30.5
00:20 1023 30.21 852 25.16 9.3 48.7 49 -0.9 30.4
00:25 1023 30.21 852 25.16 9.2 48.5 50 -0.7 30.8
00:30 1023 30.21 852 25.16 9 48.2 50 -0.8 30.6
00:35 1023 30.21 853 25.19 9.1 48.3 50 -0.9 30.4
00:40 1023 30.21 853 25.19 9.1 48.4 50 -0.8 30.6
00:45 1023 30.21 853 25.19 9.1 48.4 50 -0.8 30.5
00:50 1023 30.21 853 25.19 9 48.3 50 -0.9 30.4
00:55 1023 30.21 853 25.19 9 48.2 50 -0.9 30.4
01:00 1023 30.21 853 25.19 8.9 48.1 50 -0.9 30.3
01:05 1023 30.21 853 25.19 8.8 47.8 50 -0.9 30.3
01:10 1023 30.21 853 25.19 8.7 47.6 51 -0.9 30.3
01:15 1023 30.21 853 25.19 8.5 47.4 51 -1 30.1
01:20 1023 30.21 853 25.19 8.4 47.1 51 -1.2 29.8
01:25 1023 30.21 853 25.19 8.4 47.1 50 -1.3 29.7
01:30 1023 30.21 853 25.19 8.4 47.1 50 -1.3 29.7
01:35 1023 30.21 853 25.19 8.3 46.9 52 -1 30.1
01:40 1023 30.21 853 25.19 7.8 46.1 54 -0.8 30.5
01:45 1023 30.21 853 25.19 7.4 45.4 55 -0.9 30.3
01:50 1023 30.21 853 25.19 7.3 45.2 55 -1.1 30.1
01:55 1023 30.21 853 25.19 7.4 45.3 55 -1.1 30
02:00 1024 30.24 853 25.19 7.5 45.4 55 -1.1 30.1
02:05 1023 30.21 853 25.19 7.5 45.6 54 -1.2 29.8
02:10 1023 30.21 853 25.19 7.8 46 53 -1.3 29.7
02:15 1023 30.21 853 25.19 7.8 46 53 -1.1 30
02:20 1023 30.21 853 25.19 7.9 46.2 52 -1.3 29.7
02:25 1023 30.21 853 25.19 7.9 46.3 52 -1.3 29.7
02:30 1023 30.21 853 25.19 7.9 46.2 53 -1 30.1
02:35 1023 30.21 853 25.19 7.7 45.8 53 -1.2 29.9
02:40 1023 30.21 853 25.19 7.8 46.1 52 -1.4 29.6
02:45 1023 30.21 853 25.19 7.9 46.2 52 -1.4 29.5
02:50 1023 30.21 853 25.19 8 46.3 52 -1.3 29.6
02:55 1023 30.21 853 25.19 8.1 46.6 52 -1.2 29.8
03:00 1023 30.21 853 25.19 7.7 45.8 54 -0.9 30.3
03:05 1023 30.21 853 25.19 7.2 45 56 -0.9 30.3
03:10 1024 30.24 853 25.19 6.9 44.4 57 -1.1 30
03:15 1024 30.24 853 25.19 6.8 44.3 57 -1.1 30.1
03:20 1024 30.24 853 25.19 7 44.6 55 -1.4 29.4
03:25 1024 30.24 853 25.19 7.2 44.9 56 -1.1 30
03:30 1024 30.24 853 25.19 7.2 44.9 56 -1.1 30
03:35 1024 30.24 853 25.19 7.3 45.1 54 -1.4 29.6
03:40 1024 30.24 853 25.19 7.4 45.4 54 -1.4 29.5
03:45 1024 30.24 853 25.19 7.5 45.5 53 -1.3 29.6
03:50 1024 30.24 853 25.19 7.2 45 56 -0.9 30.3
03:55 1024 30.24 853 25.19 7 44.6 56 -1.2 29.8
04:00 1024 30.24 853 25.19 7 44.6 57 -1 30.2
04:05 1024 30.24 853 25.19 6.9 44.4 57 -1.1 30
04:10 1024 30.24 853 25.19 6.6 43.9 58 -1 30.3
04:15 1024 30.24 853 25.19 6.4 43.5 59 -1 30.2
04:20 1024 30.24 853 25.19 6.3 43.4 59 -1.2 29.9
04:25 1024 30.24 853 25.19 6.7 44.1 57 -1.3 29.7
04:30 1024 30.24 853 25.19 6.9 44.4 56 -1.2 29.9
04:35 1024 30.24 853 25.19 6.9 44.4 57 -1.1 30.1
04:40 1024 30.24 853 25.19 6.8 44.3 56 -1.3 29.6
04:45 1024 30.24 853 25.19 6.9 44.5 56 -1.2 29.8
04:50 1024 30.24 853 25.19 6.7 44 58 -1 30.2
04:55 1024 30.24 853 25.19 6.4 43.5 59 -1.1 29.9
05:00 1024 30.24 853 25.19 6.3 43.3 58 -1.3 29.6
05:05 1024 30.24 853 25.19 6.4 43.5 58 -1.4 29.6
05:10 1024 30.24 853 25.19 6.5 43.8 58 -1.2 29.8
05:15 1024 30.24 853 25.19 6.3 43.4 59 -1.1 29.9
05:20 1024 30.24 853 25.19 6.1 43.1 58 -1.4 29.5
05:25 1024 30.24 853 25.19 6.4 43.5 58 -1.3 29.7
05:30 1024 30.24 853 25.19 6.2 43.2 60 -1.1 30.1
05:35 1024 30.24 853 25.19 6 42.7 60 -1.3 29.6
05:40 1024 30.24 853 25.19 6 42.8 59 -1.3 29.6
05:45 1024 30.24 853 25.19 6.2 43.1 56 -1.8 28.7
05:50 1024 30.24 853 25.19 6.3 43.4 58 -1.2 29.8
05:55 1024 30.24 853 25.19 5.8 42.5 60 -1.3 29.6
06:00 1024 30.24 853 25.19 5.6 42.1 61 -1.3 29.6
06:05 1024 30.24 853 25.19 5.4 41.7 61 -1.5 29.3
06:10 1024 30.24 853 25.19 5.5 42 60 -1.5 29.3
06:15 1024 30.24 853 25.19 5.6 42 61 -1.4 29.4
06:20 1024 30.24 853 25.19 5.5 42 60 -1.5 29.2
06:25 1024 30.24 853 25.19 5.4 41.8 61 -1.5 29.3
06:30 1024 30.24 853 25.19 5.3 41.6 61 -1.5 29.3
06:35 1024 30.24 853 25.19 5.4 41.7 61 -1.6 29.2
06:40 1024 30.24 853 25.19 5.4 41.7 61 -1.6 29.1
06:45 1024 30.24 854 25.22 5.5 41.8 61 -1.5 29.4
06:50 1024 30.24 854 25.22 5.5 41.9 60 -1.6 29.2
06:55 1024 30.24 854 25.22 5.6 42.1 60 -1.5 29.3
07:00 1024 30.24 854 25.22 5.7 42.2 61 -1.3 29.7
07:05 1024 30.24 854 25.22 5.9 42.6 59 -1.4 29.4
07:10 1024 30.24 854 25.22 6.3 43.3 57 -1.6 29.2
07:15 1025 30.27 854 25.22 6.8 44.2 55 -1.5 29.3
07:20 1025 30.27 854 25.22 7.1 44.7 56 -1.2 29.8
07:25 1025 30.27 854 25.22 7.2 45 55 -1.3 29.7
07:30 1025 30.27 854 25.22 7.6 45.7 53 -1.2 29.8
07:35 1025 30.27 854 25.22 8.1 46.6 52 -1.1 30
07:40 1025 30.27 854 25.22 8.5 47.3 50 -1.3 29.7
07:45 1025 30.27 854 25.22 9 48.3 50 -0.9 30.5
07:50 1025 30.27 854 25.22 9.4 48.9 48 -0.9 30.4
07:55 1025 30.27 854 25.22 10.1 50.3 46 -0.9 30.4
08:00 1025 30.27 854 25.22 10.8 51.5 44 -0.8 30.5
08:05 1025 30.27 854 25.22 11.3 52.4 44 -0.6 31
08:10 1025 30.27 854 25.22 11.8 53.2 41 -0.8 30.5
08:15 1025 30.27 854 25.22 12.1 53.8 40 -0.9 30.4
08:20 1025 30.27 854 25.22 12.4 54.3 41 -0.4 31.3
08:25 1025 30.27 854 25.22 11.9 53.4 41 -1 30.3
08:30 1025 30.27 854 25.22 12.5 54.5 39 -0.9 30.4
08:35 1025 30.27 854 25.22 12.4 54.4 36 -2 28.4
08:40 1025 30.27 854 25.22 12.6 54.7 37 -1.8 28.8
08:45 1025 30.27 854 25.22 12.7 54.9 37 -1.3 29.6
08:50 1025 30.27 854 25.22 13.3 55.9 37 -0.9 30.3
08:55 1025 30.27 854 25.22 13.2 55.7 36 -1.3 29.6
09:00 1025 30.27 854 25.22 13.7 56.7 35 -1.2 29.8
09:05 1025 30.27 854 25.22 13.4 56.2 36 -1.2 29.8
09:10 1025 30.27 854 25.22 13.9 57 35 -1.2 29.9
09:15 1025 30.27 854 25.22 13.9 57 36 -1 30.3
09:20 1025 30.27 854 25.22 13.9 57 34 -1.4 29.4
09:25 1025 30.27 854 25.22 14.2 57.5 35 -0.9 30.4
09:30 1025 30.27 854 25.22 14.2 57.6 33 -1.8 28.8
09:35 1025 30.27 854 25.22 14.9 58.9 31 -1.9 28.6
09:40 1025 30.27 854 25.22 15.4 59.7 30 -1.8 28.7
09:45 1025 30.27 854 25.22 15.9 60.6 29 -2.1 28.3
09:50 1025 30.27 854 25.22 16.2 61.1 28 -2 28.3
09:55 1025 30.27 854 25.22 16.3 61.4 29 -1.4 29.4
10:00 1025 30.27 854 25.22 16.2 61.1 29 -1.7 28.9
10:05 1025 30.27 854 25.22 16.5 61.6 28 -2 28.4
10:10 1025 30.27 854 25.22 16.5 61.7 28 -2.1 28.2
10:15 1025 30.27 854 25.22 16.7 62 28 -1.6 29
10:20 1025 30.27 854 25.22 17.1 62.7 27 -1.8 28.8
10:25 1025 30.27 854 25.22 16.5 61.7 29 -1.5 29.3
10:30 1025 30.27 854 25.22 16.7 62 28 -1.8 28.8
10:35 1025 30.27 854 25.22 17 62.5 28 -1.5 29.3
10:40 1025 30.27 854 25.22 17.2 63 28 -1.2 29.9
10:45 1025 30.27 854 25.22 16.4 61.6 28 -2.2 28.1
10:50 1025 30.27 854 25.22 17.3 63.2 28 -1.3 29.7
10:55 1025 30.27 854 25.22 17.6 63.7 25 -2.3 27.8
11:00 1025 30.27 854 25.22 17.5 63.5 29 -0.6 30.8
11:05 1025 30.27 854 25.22 17.9 64.3 26 -1.8 28.8
11:10 1025 30.27 854 25.22 17.5 63.6 25 -2.5 27.4
11:15 1025 30.27 854 25.22 18.3 65 24 -2.6 27.3
11:20 1025 30.27 854 25.22 18.4 65.1 26 -1.1 30
11:25 1025 30.27 854 25.22 17.7 63.9 25 -2.6 27.3
11:30 1025 30.27 854 25.22 18.2 64.7 24 -2.4 27.6
11:35 1025 30.27 854 25.22 18.1 64.6 23 -3 26.6
11:40 1025 30.27 854 25.22 18.6 65.5 22 -3.2 26.3
11:45 1025 30.27 854 25.22 18.4 65.2 22 -3.4 25.9
11:50 1025 30.27 854 25.22 18.9 66 22 -3.2 26.3
11:55 1025 30.27 854 25.22 19.3 66.8 23 -2 28.4
12:00 1025 30.27 854 25.22 19.3 66.8 22 -2.5 27.5
12:05 1025 30.27 854 25.22 19.2 66.6 23 -2.6 27.4
12:10 1025 30.27 854 25.22 19.5 67 22 -2.4 27.7
12:15 1025 30.27 854 25.22 19.4 66.9 23 -2 28.5
12:20 1025 30.27 854 25.22 19.9 67.9 22 -2.1 28.2
12:25 1025 30.27 854 25.22 19.9 67.8 22 -2.3 27.8
12:30 1025 30.27 854 25.22 20.3 68.5 21 -2.7 27.1
12:35 1025 30.27 854 25.22 19.3 66.7 22 -2.6 27.4
12:40 1025 30.27 854 25.22 19.5 67.1 21 -3.1 26.5
12:45 1025 30.27 854 25.22 20.6 69.2 20 -3 26.6
12:50 1025 30.27 854 25.22 20.8 69.5 21 -2.4 27.7
12:55 1025 30.27 854 25.22 20.3 68.6 20 -3.3 26.1
13:00 1025 30.27 854 25.22 20.6 69 21 -2.4 27.6
13:05 1025 30.27 854 25.22 20.4 68.7 22 -1.8 28.7
13:10 1025 30.27 854 25.22 20 68 21 -2.6 27.4
13:15 1024 30.24 854 25.22 20 68 21 -2.8 26.9
13:20 1024 30.24 854 25.22 20.2 68.4 21 -2.3 27.8
13:25 1024 30.24 854 25.22 20.4 68.7 20 -2.8 26.9
13:30 1024 30.24 854 25.22 19.5 67.2 23 -2.2 28
13:35 1024 30.24 854 25.22 20 67.9 21 -3.1 26.5
13:40 1024 30.24 853 25.19 20.7 69.2 21 -2 28.4
13:45 1024 30.24 853 25.19 21 69.7 20 -2.3 27.8
13:50 1024 30.24 853 25.19 21.1 70 19 -3.1 26.5
13:55 1024 30.24 853 25.19 20.6 69 20 -2.8 26.9
14:00 1024 30.24 853 25.19 20.9 69.6 20 -3 26.6
14:05 1024 30.24 853 25.19 20.5 68.9 20 -3.1 26.4
14:10 1024 30.24 853 25.19 20 67.9 20 -3.2 26.2
14:15 1024 30.24 853 25.19 20.4 68.6 21 -2.7 27.1
14:20 1024 30.24 853 25.19 20.5 68.9 19 -3.9 24.9
14:25 1024 30.24 853 25.19 21.4 70.6 18 -3.7 25.4
14:30 1024 30.24 853 25.19 21.6 70.8 19 -2.9 26.8
14:35 1024 30.24 853 25.19 21 69.9 19 -3.3 26.1
14:40 1024 30.24 853 25.19 19.8 67.7 21 -3.2 26.3
14:45 1024 30.24 853 25.19 20.2 68.3 20 -3.4 25.9
14:50 1024 30.24 853 25.19 20.5 69 21 -2.7 27.2
14:55 1023 30.21 853 25.19 20 68 20 -3.4 25.9
15:00 1023 30.21 853 25.19 20.8 69.4 21 -2.2 28
15:05 1023 30.21 853 25.19 21.2 70.1 20 -2.7 27.2
15:10 1023 30.21 853 25.19 21.2 70.1 20 -2.3 27.9
15:15 1023 30.21 852 25.16 20.8 69.4 20 -2.7 27.1
15:20 1023 30.21 852 25.16 20.4 68.6 20 -3 26.6
15:25 1023 30.21 852 25.16 21 69.9 19 -3 26.6
15:30 1023 30.21 852 25.16 21.3 70.3 21 -1.9 28.7
15:35 1023 30.21 852 25.16 21.5 70.7 19 -2.9 26.8
15:40 1023 30.21 852 25.16 22.1 71.7 20 -1.7 28.9
15:45 1023 30.21 852 25.16 22.4 72.3 19 -2 28.4
15:50 1023 30.21 852 25.16 22.9 73.2 18 -2.3 27.9
15:55 1023 30.21 852 25.16 23.1 73.5 18 -2.6 27.3
16:00 1023 30.21 852 25.16 22.6 72.6 18 -2.4 27.6
16:05 1023 30.21 852 25.16 22.6 72.6 18 -2.4 27.7
16:10 1023 30.21 852 25.16 22.2 71.9 19 -2.4 27.6
16:15 1023 30.21 852 25.16 21.6 70.8 20 -2 28.4
16:20 1023 30.21 852 25.16 21.1 70.1 20 -2.4 27.6
16:25 1023 30.21 852 25.16 21.1 70.1 21 -2 28.5
16:30 1023 30.21 852 25.16 21.5 70.8 20 -2.2 28
16:35 1023 30.21 852 25.16 20.9 69.6 21 -2.3 27.8
16:40 1022 30.18 852 25.16 21.5 70.6 19 -2.8 26.9
16:45 1022 30.18 852 25.16 20.5 68.9 19 -3.6 25.5
16:50 1022 30.18 852 25.16 20.8 69.4 20 -2.6 27.4
16:55 1022 30.18 852 25.16 20.6 69 20 -2.8 27
17:00 1022 30.18 852 25.16 20.6 69.1 21 -2.6 27.3
17:05 1022 30.18 852 25.16 20.5 68.8 20 -3.3 26.1
17:10 1022 30.18 852 25.16 20.4 68.7 22 -1.8 28.8
17:15 1023 30.21 852 25.16 19.1 66.4 25 -1.5 29.4
17:20 1023 30.21 852 25.16 19 66.2 24 -1.7 29
17:25 1023 30.21 852 25.16 18.7 65.7 23 -2.5 27.5
17:30 1023 30.21 852 25.16 18.7 65.6 25 -1.4 29.5
17:35 1023 30.21 852 25.16 18.7 65.6 22 -3.3 26.1
17:40 1023 30.21 852 25.16 19.2 66.5 21 -3.5 25.8
17:45 1023 30.21 852 25.16 19.1 66.4 21 -3.7 25.4
17:50 1023 30.21 852 25.16 19.1 66.4 21 -3.8 25.1
17:55 1023 30.21 852 25.16 19.9 67.8 20 -3.3 26
18:00 1023 30.21 852 25.16 20 67.9 20 -3.3 26.1
18:05 1023 30.21 852 25.16 19.9 67.8 19 -4.2 24.4
18:10 1023 30.21 852 25.16 19.7 67.4 20 -4 24.8
18:15 1023 30.21 852 25.16 19.5 67.2 20 -3.9 24.9
18:20 1023 30.21 852 25.16 19.5 67.2 22 -2.6 27.3
18:25 1023 30.21 852 25.16 18.8 65.9 23 -2.4 27.6
18:30 1023 30.21 852 25.16 18.8 65.8 23 -2.7 27.1
18:35 1023 30.21 852 25.16 19 66.2 22 -3 26.7
18:40 1023 30.21 852 25.16 19.2 66.5 22 -2.6 27.2
18:45 1023 30.21 852 25.16 19.1 66.4 23 -2.5 27.6
18:50 1023 30.21 852 25.16 19 66.3 24 -2 28.3
18:55 1023 30.21 852 25.16 18.8 65.8 25 -1.8 28.8
19:00 1023 30.21 852 25.16 18.7 65.7 21 -3.8 25.1
19:05 1023 30.21 852 25.16 19 66.2 20 -4.4 24.1
19:10 1023 30.21 852 25.16 19.1 66.4 23 -2.5 27.5
19:15 1023 30.21 852 25.16 18.9 66 23 -2.6 27.4
19:20 1022 30.18 852 25.16 18.8 65.9 23 -2.4 27.6
19:25 1022 30.18 852 25.16 18.7 65.7 24 -2.3 27.9
19:30 1022 30.18 852 25.16 18.6 65.4 25 -1.9 28.6
19:35 1022 30.18 852 25.16 18.4 65.2 24 -2.3 27.8
19:40 1022 30.18 852 25.16 18.6 65.4 23 -2.7 27.2
19:45 1022 30.18 852 25.16 18.6 65.5 23 -2.7 27.1
19:50 1022 30.18 852 25.16 18.6 65.4 23 -2.5 27.4
19:55 1022 30.18 852 25.16 18.5 65.3 24 -2.1 28.3
20:00 1022 30.18 852 25.16 18.2 64.7 26 -1.6 29.1
20:05 1023 30.21 852 25.16 18 64.4 26 -1.6 29.2
20:10 1023 30.21 852 25.16 17.8 64.1 26 -1.6 29.2
20:15 1023 30.21 852 25.16 17.7 63.9 28 -1.1 30.1
20:20 1023 30.21 852 25.16 17.5 63.6 28 -1.2 29.9
20:25 1023 30.21 852 25.16 17.4 63.3 29 -0.8 30.6
20:30 1023 30.21 852 25.16 17.1 62.7 30 -0.5 31
20:35 1023 30.21 852 25.16 16.7 62 30 -0.7 30.8
20:40 1023 30.21 852 25.16 16.2 61.1 32 -0.5 31
20:45 1023 30.21 852 25.16 16 60.8 32 -0.7 30.8
20:50 1023 30.21 852 25.16 15.8 60.4 32 -0.8 30.6
20:55 1023 30.21 852 25.16 15.7 60.2 33 -0.6 30.9
21:00 1023 30.21 852 25.16 15.5 59.8 34 -0.4 31.3
21:05 1023 30.21 852 25.16 15.3 59.6 33 -0.7 30.7
21:10 1023 30.21 852 25.16 15.3 59.5 33 -0.9 30.3
21:15 1023 30.21 852 25.16 15.2 59.4 33 -0.9 30.5
21:20 1023 30.21 852 25.16 15.1 59.1 33 -1.1 30.1
21:25 1023 30.21 852 25.16 15.1 59.1 33 -1 30.3
21:30 1023 30.21 852 25.16 14.9 58.9 33 -1 30.3
21:35 1023 30.21 852 25.16 14.7 58.5 33 -1.2 29.9
21:40 1023 30.21 852 25.16 14.7 58.4 33 -1.1 29.9
21:45 1023 30.21 852 25.16 14.5 58 37 -0.1 31.8
21:50 1023 30.21 852 25.16 14 57.2 37 -0.3 31.5
21:55 1023 30.21 852 25.16 13.8 56.8 37 -0.5 31.1
22:00 1023 30.21 853 25.19 13.7 56.6 37 -0.5 31.1
22:05 1023 30.21 853 25.19 13.7 56.6 38 -0.5 31.2
22:10 1023 30.21 853 25.19 13.6 56.5 37 -0.7 30.7
22:15 1023 30.21 853 25.19 13.6 56.5 36 -1 30.3
22:20 1023 30.21 853 25.19 13.7 56.7 36 -1.1 30
22:25 1023 30.21 853 25.19 13.9 57 34 -1.8 28.7
22:30 1023 30.21 853 25.19 14.1 57.3 34 -1.4 29.4
22:35 1023 30.21 853 25.19 13.9 57 36 -0.9 30.4
22:40 1023 30.21 853 25.19 13.6 56.4 37 -0.8 30.6
22:45 1023 30.21 853 25.19 13.3 55.9 37 -1 30.2
22:50 1023 30.21 853 25.19 13.2 55.8 37 -1.1 30
22:55 1023 30.21 853 25.19 13.1 55.6 37 -1 30.1
23:00 1023 30.21 853 25.19 13 55.4 38 -1.1 30
23:05 1023 30.21 853 25.19 13 55.4 36 -1.5 29.2
23:10 1023 30.21 853 25.19 13.2 55.7 36 -1.5 29.3
23:15 1023 30.21 853 25.19 13 55.5 36 -1.5 29.3
23:20 1023 30.21 853 25.19 12.9 55.2 36 -1.8 28.8
23:25 1023 30.21 853 25.19 12.9 55.2 35 -2 28.4
23:30 1023 30.21 853 25.19 12.9 55.3 36 -1.7 29
23:35 1023 30.21 853 25.19 12.7 54.8 38 -1.3 29.6
23:40 1023 30.21 853 25.19 12.4 54.4 38 -1.5 29.4
23:45 1024 30.24 853 25.19 12.3 54.2 37 -1.7 28.9
23:50 1023 30.21 853 25.19 12.4 54.3 38 -1.6 29.1
23:55 1024 30.24 853 25.19 12.3 54.2 38 -1.7 29
24:00 1024 30.24 853 25.19 12.1 53.8 38 -1.7 28.9